createdAt,value
2023-02-09T00:01:25.285Z,22.60
2023-02-09T00:03:53.467Z,22.40
2023-02-09T00:06:22.841Z,21.83
2023-02-09T00:08:50.690Z,22.23
2023-02-09T00:11:21.444Z,23.10
2023-02-09T00:13:48.744Z,22.13
2023-02-09T00:16:16.174Z,24.00
2023-02-09T00:18:43.542Z,22.93
2023-02-09T00:21:11.973Z,23.07
2023-02-09T00:23:41.105Z,21.77
2023-02-09T00:26:11.435Z,21.57
2023-02-09T00:28:41.243Z,22.80
2023-02-09T00:31:10.674Z,23.47
2023-02-09T00:33:41.263Z,22.20
2023-02-09T00:36:13.022Z,21.67
2023-02-09T00:38:43.987Z,22.30
2023-02-09T00:41:13.233Z,22.13
2023-02-09T00:43:40.946Z,22.70
2023-02-09T00:46:08.550Z,21.83
2023-02-09T00:48:37.156Z,22.57
2023-02-09T00:51:04.555Z,22.27
2023-02-09T00:53:32.024Z,22.13
2023-02-09T00:56:00.101Z,21.03
2023-02-09T00:58:27.389Z,22.43
2023-02-09T01:00:54.783Z,21.87
2023-02-09T01:03:22.153Z,21.73
2023-02-09T01:05:49.872Z,21.33
2023-02-09T01:08:17.294Z,21.10
2023-02-09T01:10:44.842Z,21.27
2023-02-09T01:13:12.287Z,21.27
2023-02-09T01:15:40.660Z,20.90
2023-02-09T01:18:08.147Z,20.47
2023-02-09T01:20:35.838Z,20.63
2023-02-09T01:23:03.125Z,20.90
2023-02-09T01:25:31.272Z,20.33
2023-02-09T01:27:58.878Z,20.60
2023-02-09T01:30:26.820Z,18.53
2023-02-09T01:32:55.503Z,19.43
2023-02-09T01:35:23.026Z,18.53
2023-02-09T01:37:50.726Z,18.77
2023-02-09T01:40:18.031Z,19.73
2023-02-09T01:42:45.304Z,19.10
2023-02-09T01:45:45.078Z,18.83
2023-02-09T01:48:14.977Z,19.67
2023-02-09T01:50:47.274Z,18.70
2023-02-09T01:53:15.780Z,18.80
2023-02-09T01:55:53.426Z,17.60
2023-02-09T01:58:23.141Z,18.93
2023-02-09T02:00:50.703Z,17.57
2023-02-09T02:03:22.574Z,18.67
2023-02-09T02:05:55.778Z,19.13
2023-02-09T02:08:37.974Z,19.30
2023-02-09T02:11:07.620Z,19.20
2023-02-09T02:13:35.237Z,18.70
2023-02-09T02:16:21.308Z,18.73
2023-02-09T02:19:13.494Z,18.40
2023-02-09T02:21:49.418Z,18.10
2023-02-09T02:24:56.379Z,18.10
2023-02-09T02:27:32.136Z,19.47
2023-02-09T02:30:29.950Z,18.67
2023-02-09T02:33:07.112Z,19.10
2023-02-09T02:35:40.570Z,19.17
2023-02-09T02:38:23.682Z,19.20
2023-02-09T02:41:02.888Z,18.57
2023-02-09T02:43:40.555Z,18.03
2023-02-09T02:46:11.787Z,19.40
2023-02-09T02:49:09.668Z,18.13
2023-02-09T02:51:43.658Z,17.87
2023-02-09T02:54:17.211Z,19.40
2023-02-09T02:56:50.088Z,19.00
2023-02-09T02:59:30.629Z,19.80
2023-02-09T03:02:04.649Z,19.03
2023-02-09T03:04:34.157Z,19.53
2023-02-09T03:07:05.459Z,19.87
2023-02-09T03:09:32.929Z,19.17
2023-02-09T03:12:20.409Z,19.17
2023-02-09T03:15:20.335Z,19.40
2023-02-09T03:17:58.121Z,19.20
2023-02-09T03:20:28.131Z,18.73
2023-02-09T03:23:02.555Z,20.90
2023-02-09T03:25:44.871Z,18.83
2023-02-09T03:28:22.055Z,19.20
2023-02-09T03:30:51.501Z,20.07
2023-02-09T03:33:21.388Z,20.07
2023-02-09T03:35:56.121Z,19.03
2023-02-09T03:38:23.769Z,21.17
2023-02-09T03:40:51.258Z,19.60
2023-02-09T03:43:18.568Z,21.13
2023-02-09T03:45:45.929Z,21.27
2023-02-09T03:48:13.243Z,20.67
2023-02-09T03:50:40.550Z,20.50
2023-02-09T03:53:07.903Z,21.20
2023-02-09T03:55:35.949Z,20.17
2023-02-09T03:58:04.498Z,20.07
2023-02-09T04:00:32.199Z,20.40
2023-02-09T04:02:59.482Z,20.27
2023-02-09T04:05:26.896Z,20.20
2023-02-09T04:07:54.168Z,23.33
2023-02-09T04:10:21.414Z,22.43
2023-02-09T04:12:48.798Z,22.10
2023-02-09T04:15:16.240Z,23.77
2023-02-09T04:17:43.659Z,23.93
2023-02-09T04:20:11.693Z,23.17
2023-02-09T04:22:40.028Z,23.73
2023-02-09T04:25:07.536Z,23.03
2023-02-09T04:27:34.877Z,23.50
2023-02-09T04:30:02.175Z,23.40
2023-02-09T04:32:29.530Z,23.20
2023-02-09T04:34:56.907Z,24.50
2023-02-09T04:37:24.191Z,23.43
2023-02-09T04:39:53.023Z,23.83
2023-02-09T04:42:20.381Z,24.27
2023-02-09T04:44:47.999Z,23.73
2023-02-09T04:47:15.277Z,22.87
2023-02-09T04:49:44.421Z,23.10
2023-02-09T04:52:12.053Z,24.27
2023-02-09T04:54:39.380Z,24.60
2023-02-09T04:57:25.269Z,23.97
2023-02-09T04:59:52.684Z,24.90
2023-02-09T05:02:20.213Z,25.10
2023-02-09T05:04:47.548Z,24.77
2023-02-09T05:07:14.910Z,25.03
2023-02-09T05:09:42.180Z,26.07
2023-02-09T05:12:10.189Z,25.97
2023-02-09T05:14:37.531Z,28.50
2023-02-09T05:17:04.920Z,28.67
2023-02-09T05:19:32.424Z,27.80
2023-02-09T05:21:59.840Z,27.70
2023-02-09T05:24:27.102Z,27.37
2023-02-09T05:26:54.347Z,28.13
2023-02-09T05:29:22.321Z,27.10
2023-02-09T05:31:49.723Z,29.13
2023-02-09T05:34:17.002Z,27.03
2023-02-09T05:36:44.434Z,27.47
2023-02-09T05:39:11.792Z,28.90
2023-02-09T05:41:57.932Z,29.03
2023-02-09T05:44:25.372Z,27.00
2023-02-09T05:46:52.802Z,27.73
2023-02-09T05:49:20.257Z,29.20
2023-02-09T05:51:47.967Z,27.57
2023-02-09T05:54:15.339Z,28.67
2023-02-09T05:56:43.284Z,27.43
2023-02-09T05:59:10.591Z,28.83
2023-02-09T06:01:38.298Z,27.73
2023-02-09T06:04:06.523Z,28.77
2023-02-09T06:06:33.759Z,28.13
2023-02-09T06:09:01.631Z,27.63
2023-02-09T06:11:29.102Z,27.87
2023-02-09T06:13:56.507Z,26.60
2023-02-09T06:16:23.971Z,26.87
2023-02-09T06:18:51.270Z,26.23
2023-02-09T06:21:18.644Z,63.90
2023-02-09T06:23:46.344Z,27.67
2023-02-09T06:26:17.002Z,24.70
2023-02-09T06:28:45.032Z,26.37
2023-02-09T06:31:13.007Z,27.93
2023-02-09T06:33:40.447Z,23.33
2023-02-09T06:36:09.148Z,25.67
2023-02-09T06:38:38.337Z,26.00
2023-02-09T06:41:06.022Z,26.83
2023-02-09T06:43:33.957Z,24.13
2023-02-09T06:46:12.371Z,23.93
2023-02-09T06:48:40.428Z,25.03
2023-02-09T06:51:10.194Z,25.13
2023-02-09T06:53:39.302Z,26.90
2023-02-09T06:56:07.474Z,27.40
2023-02-09T06:58:36.113Z,28.17
2023-02-09T07:01:04.868Z,24.90
2023-02-09T07:03:32.410Z,23.60
2023-02-09T07:06:07.342Z,25.23
2023-02-09T07:08:35.857Z,24.07
2023-02-09T07:11:04.693Z,23.40
2023-02-09T07:13:33.033Z,23.77
2023-02-09T07:16:02.377Z,22.97
2023-02-09T07:18:29.950Z,22.93
2023-02-09T07:20:59.263Z,22.67
2023-02-09T07:23:26.797Z,23.37
2023-02-09T07:25:54.240Z,23.50
2023-02-09T07:28:21.835Z,23.67
2023-02-09T07:30:51.956Z,32.30
2023-02-09T07:33:20.371Z,25.33
2023-02-09T07:35:48.689Z,23.80
2023-02-09T07:38:16.529Z,21.67
2023-02-09T07:40:47.012Z,24.33
2023-02-09T07:43:14.858Z,24.10
2023-02-09T07:45:42.836Z,23.63
2023-02-09T07:48:11.875Z,22.83
2023-02-09T07:50:39.448Z,23.73
2023-02-09T07:53:06.832Z,24.53
2023-02-09T07:55:34.059Z,21.87
2023-02-09T07:58:01.584Z,22.73
2023-02-09T08:00:29.000Z,22.77
2023-02-09T08:02:56.813Z,22.50
2023-02-09T08:05:34.663Z,22.40
2023-02-09T08:08:01.972Z,21.17
2023-02-09T08:10:29.384Z,21.97
2023-02-09T08:12:59.782Z,21.00
2023-02-09T08:15:37.907Z,22.23
2023-02-09T08:18:13.034Z,22.87
2023-02-09T08:20:42.373Z,23.50
2023-02-09T08:23:15.870Z,20.87
2023-02-09T08:25:43.554Z,38.10
2023-02-09T08:28:11.303Z,27.03
2023-02-09T08:30:39.043Z,27.37
2023-02-09T08:33:06.345Z,30.33
2023-02-09T08:35:33.750Z,31.37
2023-02-09T08:38:02.695Z,22.07
2023-02-09T08:40:31.059Z,22.73
2023-02-09T08:42:58.698Z,23.17
2023-02-09T08:45:26.262Z,42.17
2023-02-09T08:47:54.983Z,27.87
2023-02-09T08:50:22.316Z,25.97
2023-02-09T08:52:49.703Z,23.87
2023-02-09T08:55:17.184Z,22.80
2023-02-09T08:57:44.872Z,22.93
2023-02-09T09:00:13.289Z,22.10
2023-02-09T09:02:40.682Z,23.80
2023-02-09T09:05:08.391Z,23.70
2023-02-09T09:07:35.925Z,23.43
2023-02-09T09:10:03.868Z,23.37
2023-02-09T09:12:31.448Z,21.27
2023-02-09T09:14:58.693Z,21.20
2023-02-09T09:17:26.016Z,19.77
2023-02-09T09:19:55.999Z,19.13
2023-02-09T09:22:24.054Z,19.50
2023-02-09T09:24:54.258Z,20.33
2023-02-09T09:27:22.104Z,18.47
2023-02-09T09:29:49.689Z,17.60
2023-02-09T09:32:17.128Z,19.30
2023-02-09T09:34:44.511Z,17.07
2023-02-09T09:37:11.881Z,17.90
2023-02-09T09:39:39.378Z,17.43
2023-02-09T09:42:06.860Z,18.00
2023-02-09T09:44:45.190Z,18.60
2023-02-09T09:47:22.036Z,17.40
2023-02-09T09:49:49.709Z,29.47
2023-02-09T09:52:25.626Z,40.63
2023-02-09T09:54:52.997Z,36.20
2023-02-09T09:57:27.395Z,30.03
2023-02-09T09:59:55.981Z,28.23
2023-02-09T10:02:32.861Z,15.57
2023-02-09T10:05:26.286Z,14.80
2023-02-09T10:08:05.247Z,11.83
2023-02-09T10:11:06.234Z,13.13
2023-02-09T10:13:39.725Z,14.43
2023-02-09T10:16:16.934Z,24.90
2023-02-09T10:18:45.517Z,16.93
2023-02-09T10:21:15.063Z,19.30
2023-02-09T10:23:42.684Z,12.97
2023-02-09T10:26:10.391Z,11.30
2023-02-09T10:28:56.548Z,10.83
2023-02-09T10:31:31.651Z,11.50
2023-02-09T10:34:04.537Z,11.63
2023-02-09T10:36:35.807Z,10.47
2023-02-09T10:39:12.209Z,10.63
2023-02-09T10:41:43.884Z,11.20
2023-02-09T10:44:16.860Z,10.77
2023-02-09T10:46:44.593Z,10.80
2023-02-09T10:49:28.872Z,12.13
2023-02-09T10:52:16.383Z,11.27
2023-02-09T10:54:48.638Z,11.60
2023-02-09T10:57:23.753Z,10.77
2023-02-09T10:59:53.279Z,12.10
2023-02-09T11:02:37.053Z,12.03
2023-02-09T11:05:28.982Z,11.73
2023-02-09T11:08:21.716Z,12.13
2023-02-09T11:11:08.845Z,11.70
2023-02-09T11:13:36.990Z,11.30
2023-02-09T11:16:16.081Z,12.23
2023-02-09T11:18:47.119Z,12.07
2023-02-09T11:21:35.484Z,11.20
2023-02-09T11:24:31.203Z,12.07
2023-02-09T11:27:36.214Z,12.70
2023-02-09T11:30:06.472Z,20.30
2023-02-09T11:32:48.449Z,25.00
2023-02-09T11:35:21.602Z,20.57
2023-02-09T11:38:07.926Z,12.77
2023-02-09T11:40:41.481Z,12.60
2023-02-09T11:43:26.785Z,12.97
2023-02-09T11:46:02.520Z,11.77
2023-02-09T11:48:38.757Z,12.03
2023-02-09T11:51:23.860Z,11.50
2023-02-09T11:54:07.578Z,11.17
2023-02-09T11:56:42.224Z,11.47
2023-02-09T11:59:39.309Z,12.00
2023-02-09T12:02:42.590Z,10.50
2023-02-09T12:05:14.413Z,9.10
2023-02-09T12:07:48.722Z,11.17
2023-02-09T12:10:29.888Z,10.70
2023-02-09T12:13:05.651Z,10.80
2023-02-09T12:15:47.086Z,10.57
2023-02-09T12:18:19.186Z,10.07
2023-02-09T12:20:51.009Z,9.07
2023-02-09T12:23:24.348Z,10.77
2023-02-09T12:26:11.274Z,10.90
2023-02-09T12:28:40.910Z,10.73
2023-02-09T12:31:12.008Z,10.70
2023-02-09T12:33:47.133Z,10.17
2023-02-09T12:36:14.469Z,10.27
2023-02-09T12:38:55.947Z,12.47
2023-02-09T12:41:28.897Z,17.90
2023-02-09T12:44:11.576Z,14.03
2023-02-09T12:46:45.020Z,10.80
2023-02-09T12:49:12.351Z,12.07
2023-02-09T12:51:48.953Z,11.70
2023-02-09T12:54:43.664Z,11.03
2023-02-09T12:57:17.210Z,10.77
2023-02-09T12:59:53.738Z,11.50
2023-02-09T13:02:36.180Z,11.00
2023-02-09T13:05:30.595Z,11.93
2023-02-09T13:08:18.831Z,12.33
2023-02-09T13:11:27.948Z,11.33
2023-02-09T13:14:07.420Z,12.27
2023-02-09T13:17:09.561Z,12.53
2023-02-09T13:19:48.907Z,12.83
2023-02-09T13:22:34.596Z,11.67
2023-02-09T13:25:14.238Z,11.40
2023-02-09T13:27:49.856Z,11.77
2023-02-09T13:30:27.736Z,11.10
2023-02-09T13:32:55.026Z,12.40
2023-02-09T13:35:29.218Z,12.87
2023-02-09T13:37:59.215Z,12.60
2023-02-09T13:40:31.051Z,12.40
2023-02-09T13:43:10.896Z,11.93
2023-02-09T13:45:52.986Z,11.37
2023-02-09T13:48:39.548Z,26.17
2023-02-09T13:51:19.453Z,20.30
2023-02-09T13:54:02.144Z,15.53
2023-02-09T13:56:32.037Z,15.37
2023-02-09T13:59:00.232Z,16.10
2023-02-09T14:01:35.959Z,12.20
2023-02-09T14:04:21.666Z,11.77
2023-02-09T14:07:03.563Z,11.70
2023-02-09T14:09:56.747Z,11.63
2023-02-09T14:12:59.871Z,12.20
2023-02-09T14:15:59.451Z,11.80
2023-02-09T14:18:45.325Z,12.27
2023-02-09T14:21:14.718Z,11.87
2023-02-09T14:24:12.324Z,11.70
2023-02-09T14:27:04.086Z,10.73
2023-02-09T14:29:34.424Z,10.43
2023-02-09T14:32:31.930Z,10.17
2023-02-09T14:35:17.196Z,10.20
2023-02-09T14:37:45.501Z,10.53
2023-02-09T14:40:37.224Z,11.13
2023-02-09T14:43:10.694Z,10.27
2023-02-09T14:45:57.633Z,10.70
2023-02-09T14:48:30.076Z,10.63
2023-02-09T14:51:14.716Z,11.13
2023-02-09T14:53:44.030Z,10.70
2023-02-09T14:56:31.038Z,10.00
2023-02-09T14:58:58.307Z,10.90
2023-02-09T15:01:25.702Z,10.70
2023-02-09T15:03:53.189Z,13.20
2023-02-09T15:06:20.706Z,11.23
2023-02-09T15:08:48.183Z,10.23
2023-02-09T15:11:42.711Z,10.50
2023-02-09T15:14:11.437Z,10.20
2023-02-09T15:16:38.856Z,10.00
2023-02-09T15:19:20.206Z,10.47
2023-02-09T15:22:01.891Z,10.50
2023-02-09T15:24:33.706Z,10.30
2023-02-09T15:27:01.758Z,10.87
2023-02-09T15:29:29.225Z,10.67
2023-02-09T15:31:56.552Z,11.07
2023-02-09T15:34:23.939Z,9.90
2023-02-09T15:36:51.333Z,78.40
2023-02-09T15:39:23.677Z,47.17
2023-02-09T15:42:09.579Z,24.13
2023-02-09T15:44:55.828Z,15.23
2023-02-09T15:47:41.914Z,12.70
2023-02-09T15:50:09.476Z,11.23
2023-02-09T15:52:36.856Z,13.37
2023-02-09T15:55:04.784Z,15.30
2023-02-09T15:57:32.236Z,14.67
2023-02-09T15:59:59.491Z,11.80
2023-02-09T16:02:26.842Z,11.10
2023-02-09T16:04:54.349Z,11.80
2023-02-09T16:07:26.528Z,10.63
2023-02-09T16:09:53.851Z,11.67
2023-02-09T16:12:23.717Z,11.90
2023-02-09T16:14:53.156Z,11.10
2023-02-09T16:17:20.752Z,12.00
2023-02-09T16:19:49.063Z,11.53
2023-02-09T16:22:17.132Z,11.40
2023-02-09T16:24:46.314Z,10.40
2023-02-09T16:27:17.565Z,11.57
2023-02-09T16:29:44.845Z,10.97
2023-02-09T16:32:18.023Z,11.27
2023-02-09T16:34:45.934Z,12.47
2023-02-09T16:37:30.131Z,10.63
2023-02-09T16:39:58.401Z,10.83
2023-02-09T16:42:25.790Z,11.10
2023-02-09T16:44:53.539Z,10.60
2023-02-09T16:47:26.155Z,12.73
2023-02-09T16:50:02.831Z,11.47
2023-02-09T16:52:30.404Z,10.67
2023-02-09T16:55:00.781Z,10.40
2023-02-09T16:57:28.800Z,11.20
2023-02-09T16:59:56.653Z,11.27
2023-02-09T17:02:43.664Z,10.87
2023-02-09T17:05:18.643Z,11.10
2023-02-09T17:07:54.902Z,11.77
2023-02-09T17:10:26.571Z,11.30
2023-02-09T17:12:54.156Z,11.10
2023-02-09T17:15:31.515Z,14.00
2023-02-09T17:18:03.590Z,10.80
2023-02-09T17:20:41.089Z,15.43
2023-02-09T17:23:14.171Z,14.63
2023-02-09T17:25:41.437Z,11.70
2023-02-09T17:28:08.920Z,12.17
2023-02-09T17:30:36.893Z,11.07
2023-02-09T17:33:08.190Z,11.40
2023-02-09T17:38:34.462Z,10.73
2023-02-09T17:41:06.307Z,11.50
2023-02-09T17:43:33.652Z,11.57
2023-02-09T17:46:01.339Z,11.70
2023-02-09T17:48:29.877Z,11.63
2023-02-09T17:51:00.105Z,11.47
2023-02-09T17:53:32.172Z,10.90
2023-02-09T17:56:00.393Z,10.97
2023-02-09T17:58:27.859Z,11.80
2023-02-09T18:00:56.021Z,10.80
2023-02-09T18:03:25.942Z,11.83
2023-02-09T18:05:58.582Z,11.37
2023-02-09T18:08:27.309Z,11.33
2023-02-09T18:10:58.535Z,11.50
2023-02-09T18:13:27.462Z,12.97
2023-02-09T18:15:55.529Z,11.60
2023-02-09T18:18:24.383Z,11.90
2023-02-09T18:20:52.644Z,12.63
2023-02-09T18:23:19.923Z,12.20
2023-02-09T18:25:50.005Z,11.63
2023-02-09T18:28:17.462Z,12.17
2023-02-09T18:30:45.451Z,11.83
2023-02-09T18:33:14.660Z,15.40
2023-02-09T18:35:45.059Z,16.67
2023-02-09T18:38:14.943Z,12.83
2023-02-09T18:40:42.375Z,11.97
2023-02-09T18:43:14.588Z,10.57
2023-02-09T18:45:42.090Z,11.43
2023-02-09T18:48:10.707Z,11.50
2023-02-09T18:50:38.396Z,11.40
2023-02-09T18:53:08.384Z,11.77
2023-02-09T18:55:35.755Z,11.87
2023-02-09T18:58:05.519Z,11.03
2023-02-09T19:00:35.830Z,11.37
2023-02-09T19:03:03.425Z,11.80
2023-02-09T19:05:34.739Z,12.47
2023-02-09T19:08:02.431Z,11.10
2023-02-09T19:10:33.131Z,11.87
2023-02-09T19:13:04.143Z,10.90
2023-02-09T19:15:35.910Z,11.27
2023-02-09T19:18:04.254Z,11.40
2023-02-09T19:20:34.330Z,10.90
2023-02-09T19:23:03.771Z,11.43
2023-02-09T19:25:31.178Z,10.93
2023-02-09T19:27:58.582Z,11.40
2023-02-09T19:30:26.679Z,12.23
2023-02-09T19:32:56.033Z,11.83
2023-02-09T19:35:23.582Z,11.50
2023-02-09T19:37:55.950Z,15.10
2023-02-09T19:40:36.807Z,14.90
2023-02-09T19:43:06.105Z,11.23
2023-02-09T19:45:37.337Z,11.90
2023-02-09T19:48:09.719Z,11.50
2023-02-09T19:50:37.151Z,11.20
2023-02-09T19:53:05.928Z,11.10
2023-02-09T19:55:33.685Z,10.27
2023-02-09T19:58:01.161Z,11.47
2023-02-09T20:00:28.831Z,10.30
2023-02-09T20:02:56.251Z,10.70
2023-02-09T20:05:23.586Z,11.47
2023-02-09T20:07:52.800Z,11.03
2023-02-09T20:10:22.003Z,10.40
2023-02-09T20:12:49.806Z,10.50
2023-02-09T20:15:18.755Z,10.17
2023-02-09T20:20:15.007Z,10.33
2023-02-09T20:22:43.597Z,10.80
2023-02-09T20:25:11.970Z,11.47
2023-02-09T20:27:39.486Z,10.50
2023-02-09T20:30:07.811Z,11.07
2023-02-09T20:32:38.121Z,10.37
2023-02-09T20:35:09.360Z,11.07
2023-02-09T20:37:36.717Z,12.60
2023-02-09T20:40:05.026Z,12.30
2023-02-09T20:42:51.322Z,11.40
2023-02-09T20:45:37.114Z,11.73
2023-02-09T20:48:05.489Z,11.90
2023-02-09T20:50:33.610Z,11.50
2023-02-09T20:53:01.634Z,12.17
2023-02-09T20:55:29.972Z,12.47
2023-02-09T20:57:57.429Z,13.10
2023-02-09T21:00:24.800Z,13.47
2023-02-09T21:02:52.523Z,13.47
2023-02-09T21:05:19.801Z,13.30
2023-02-09T21:07:48.399Z,13.63
2023-02-09T21:10:16.384Z,13.00
2023-02-09T21:12:43.747Z,14.50
2023-02-09T21:15:11.444Z,15.90
2023-02-09T21:17:45.400Z,13.80
2023-02-09T21:20:13.159Z,14.00
2023-02-09T21:22:40.842Z,13.73
2023-02-09T21:25:08.657Z,14.60
2023-02-09T21:27:36.192Z,13.23
2023-02-09T21:30:05.113Z,14.23
2023-02-09T21:32:35.812Z,13.97
2023-02-09T21:35:03.241Z,14.30
2023-02-09T21:37:32.342Z,13.97
2023-02-09T21:40:03.032Z,14.53
2023-02-09T21:42:31.043Z,14.10
2023-02-09T21:44:59.706Z,14.07
2023-02-09T21:47:29.434Z,14.17
2023-02-09T21:49:57.653Z,14.50
2023-02-09T21:52:25.644Z,14.63
2023-02-09T21:54:53.808Z,15.03
2023-02-09T21:57:21.326Z,14.53
2023-02-09T21:59:49.081Z,13.33
2023-02-09T22:02:17.987Z,14.03
2023-02-09T22:04:50.266Z,14.47
2023-02-09T22:07:17.523Z,14.63
2023-02-09T22:09:44.763Z,13.83
2023-02-09T22:12:12.071Z,14.13
2023-02-09T22:14:39.409Z,15.47
2023-02-09T22:17:06.815Z,14.63
2023-02-09T22:19:34.417Z,14.30
2023-02-09T22:22:01.938Z,13.97
2023-02-09T22:24:30.064Z,14.00
2023-02-09T22:26:57.646Z,14.37
2023-02-09T22:29:25.155Z,15.60
2023-02-09T22:31:52.602Z,16.47
2023-02-09T22:34:19.860Z,17.03
2023-02-09T22:36:51.629Z,16.57
2023-02-09T22:39:19.392Z,17.27
2023-02-09T22:41:48.355Z,16.53
2023-02-09T22:44:17.121Z,15.17
2023-02-09T22:46:45.569Z,16.83
2023-02-09T22:49:22.537Z,16.27
2023-02-09T22:51:50.449Z,16.63
2023-02-09T22:54:19.527Z,18.13
2023-02-09T22:56:47.336Z,18.00
2023-02-09T22:59:15.657Z,21.00
2023-02-09T23:01:43.392Z,20.67
2023-02-09T23:04:11.689Z,21.70
2023-02-09T23:06:39.551Z,19.87
2023-02-09T23:09:07.840Z,16.03
2023-02-09T23:11:36.041Z,15.03
2023-02-09T23:14:09.694Z,15.27
2023-02-09T23:16:39.432Z,14.83
2023-02-09T23:19:09.117Z,14.53
2023-02-09T23:21:40.033Z,14.30
2023-02-09T23:24:08.446Z,14.83
2023-02-09T23:26:36.783Z,15.83
2023-02-09T23:29:08.799Z,14.63
2023-02-09T23:31:37.271Z,14.43
2023-02-09T23:34:04.998Z,15.73
2023-02-09T23:36:33.841Z,15.10
2023-02-09T23:39:05.029Z,15.83
2023-02-09T23:41:33.000Z,14.83
2023-02-09T23:44:00.616Z,15.73
2023-02-09T23:46:29.007Z,16.20
2023-02-09T23:48:57.066Z,16.17
2023-02-09T23:51:35.514Z,17.97
2023-02-09T23:54:06.143Z,15.80
2023-02-09T23:56:37.198Z,15.13
2023-02-09T23:59:11.624Z,15.40
